Aviation Digital Data Service (ADDS)

Output produced by METARs form (2124 UTC 06 December 2019)
found at http://www.aviationweather.gov/metar/data/
 
METAR text: LYBE 062100Z VRB01KT 1500 BR NSC M01/M02 Q1021 TEMPO 0800 FZFG
Conditions at: LYBE (BELGRADE/SURCIN , CS) observed 2100 UTC 06 December 2019
Temperature: -1.0°C (30°F)
Dewpoint: -2.0°C (28°F) [RH = 93%]
Pressure (altimeter): 30.15 inches Hg (1021.0 mb)
Winds: variable direction winds at 1 MPH (1 knots; 0.5 m/s)
Visibility: 0.93 miles (1.50 km)
Ceiling: at least 12,000 feet AGL
Clouds: sky clear below 12,000 feet AGL
Weather: BR  (mist)

METAR text: LYBE 062030Z 00000KT 0800 R12/0550U R30/1800U FZFG NSC M02/M02 Q1021 NOSIG
Conditions at: LYBE (BELGRADE/SURCIN , CS) observed 2030 UTC 06 December 2019
Temperature: -2.0°C (28°F)
Dewpoint: -2.0°C (28°F) [RH = 100%]
Pressure (altimeter): 30.15 inches Hg (1021.0 mb)
Winds: calm
Visibility: 0.50 miles (0.80 km)
Ceiling: at least 12,000 feet AGL
Clouds: sky clear below 12,000 feet AGL
Weather: FZFG  (freezing fog)

METAR text: LYBE 062000Z 00000KT 0400 R12/0550D R30/0800U FZFG SCT003 M01/M02 Q1022 TEMPO BKN002
Conditions at: LYBE (BELGRADE/SURCIN , CS) observed 2000 UTC 06 December 2019
Temperature: -1.0°C (30°F)
Dewpoint: -2.0°C (28°F) [RH = 93%]
Pressure (altimeter): 30.18 inches Hg (1022.0 mb)
Winds: calm
Visibility: 0.25 miles (0.40 km)
Ceiling: at least 12,000 feet AGL
Clouds: scattered clouds at 300 feet AGL
Weather: FZFG  (freezing fog)

METAR text: LYBE 061930Z 00000KT 0250 R12/0275N R30/0275N FZFG VV002 M01/M02 Q1022 NOSIG
Conditions at: LYBE (BELGRADE/SURCIN , CS) observed 1930 UTC 06 December 2019
Temperature: -1.0°C (30°F)
Dewpoint: -2.0°C (28°F) [RH = 93%]
Pressure (altimeter): 30.18 inches Hg (1022.0 mb)
Winds: calm
Visibility: 0.16 miles (0.26 km)
Ceiling: indefinite ceiling with vertical visibility of 200 feet AGL
Clouds: obscured sky
Weather: FZFG  (freezing fog)

METAR text: LYBE 061900Z 05003KT 0250 R12/0300N R30/0325N FZFG VV002 M01/M01 Q1022 NOSIG
Conditions at: LYBE (BELGRADE/SURCIN , CS) observed 1900 UTC 06 December 2019
Temperature: -1.0°C (30°F)
Dewpoint: -1.0°C (30°F) [RH = 100%]
Pressure (altimeter): 30.18 inches Hg (1022.0 mb)
Winds: from the NE (50 degrees) at 3 MPH (3 knots; 1.5 m/s)
Visibility: 0.16 miles (0.26 km)
Ceiling: indefinite ceiling with vertical visibility of 200 feet AGL
Clouds: obscured sky
Weather: FZFG  (freezing fog)

METAR text: LYBE 061830Z 03002KT 0250 R12/0275N R30/0325N FZFG VV002 M01/M01 Q1023 NOSIG
Conditions at: LYBE (BELGRADE/SURCIN , CS) observed 1830 UTC 06 December 2019
Temperature: -1.0°C (30°F)
Dewpoint: -1.0°C (30°F) [RH = 100%]
Pressure (altimeter): 30.21 inches Hg (1023.0 mb)
Winds: from the NNE (30 degrees) at 2 MPH (2 knots; 1.0 m/s)
Visibility: 0.16 miles (0.26 km)
Ceiling: indefinite ceiling with vertical visibility of 200 feet AGL
Clouds: obscured sky
Weather: FZFG  (freezing fog)

METAR text: LYBE 061800Z 06003KT 0400 R12/0400N R30/0450D FZFG SCT002 M01/M01 Q1023 TEMPO VV002
Conditions at: LYBE (BELGRADE/SURCIN , CS) observed 1800 UTC 06 December 2019
Temperature: -1.0°C (30°F)
Dewpoint: -1.0°C (30°F) [RH = 100%]
Pressure (altimeter): 30.21 inches Hg (1023.0 mb)
Winds: from the ENE (60 degrees) at 3 MPH (3 knots; 1.5 m/s)
Visibility: 0.25 miles (0.40 km)
Ceiling: at least 12,000 feet AGL
Clouds: scattered clouds at 200 feet AGL
Weather: FZFG  (freezing fog)

METAR text: LYBE 061730Z 08003KT 2000 BR NSC 00/M00 Q1023 TEMPO 1000 BKN003
Conditions at: LYBE (BELGRADE/SURCIN , CS) observed 1730 UTC 06 December 2019
Temperature: 0.0°C (32°F)
Dewpoint: 0.0°C (32°F) [RH = 100%]
Pressure (altimeter): 30.21 inches Hg (1023.0 mb)
Winds: from the E (80 degrees) at 3 MPH (3 knots; 1.5 m/s)
Visibility: 1.24 miles (2.00 km)
Ceiling: at least 12,000 feet AGL
Clouds: sky clear below 12,000 feet AGL
Weather: BR  (mist)

METAR text: LYBE 061700Z 02003KT 2500 BR NSC 00/M00 Q1023 TEMPO 1000
Conditions at: LYBE (BELGRADE/SURCIN , CS) observed 1700 UTC 06 December 2019
Temperature: 0.0°C (32°F)
Dewpoint: 0.0°C (32°F) [RH = 100%]
Pressure (altimeter): 30.21 inches Hg (1023.0 mb)
Winds: from the NNE (20 degrees) at 3 MPH (3 knots; 1.5 m/s)
Visibility: 1.55 miles (2.49 km)
Ceiling: at least 12,000 feet AGL
Clouds: sky clear below 12,000 feet AGL
Weather: BR  (mist)

METAR text: LYBE 061630Z 01004KT 3000 BR NSC 00/00 Q1023 TEMPO 1500 BKN004
Conditions at: LYBE (BELGRADE/SURCIN , CS) observed 1630 UTC 06 December 2019
Temperature: 0.0°C (32°F)
Dewpoint: 0.0°C (32°F) [RH = 100%]
Pressure (altimeter): 30.21 inches Hg (1023.0 mb)
Winds: from the N (10 degrees) at 5 MPH (4 knots; 2.1 m/s)
Visibility: 1.86 miles (2.99 km)
Ceiling: at least 12,000 feet AGL
Clouds: sky clear below 12,000 feet AGL
Weather: BR  (mist)

METAR text: LYBE 061600Z 01004KT 3000 BR NSC 01/00 Q1023 TEMPO 1500 BKN004
Conditions at: LYBE (BELGRADE/SURCIN , CS) observed 1600 UTC 06 December 2019
Temperature: 1.0°C (34°F)
Dewpoint: 0.0°C (32°F) [RH = 93%]
Pressure (altimeter): 30.21 inches Hg (1023.0 mb)
Winds: from the N (10 degrees) at 5 MPH (4 knots; 2.1 m/s)
Visibility: 1.86 miles (2.99 km)
Ceiling: at least 12,000 feet AGL
Clouds: sky clear below 12,000 feet AGL
Weather: BR  (mist)

METAR text: LYBE 061530Z 02004KT 4000 BR NSC 01/00 Q1023 TEMPO 2000 BKN004
Conditions at: LYBE (BELGRADE/SURCIN , CS) observed 1530 UTC 06 December 2019
Temperature: 1.0°C (34°F)
Dewpoint: 0.0°C (32°F) [RH = 93%]
Pressure (altimeter): 30.21 inches Hg (1023.0 mb)
Winds: from the NNE (20 degrees) at 5 MPH (4 knots; 2.1 m/s)
Visibility: 2.49 miles (4.01 km)
Ceiling: at least 12,000 feet AGL
Clouds: sky clear below 12,000 feet AGL
Weather: BR  (mist)

METAR text: LYBE 061500Z VRB02KT 2500 BR NSC 02/01 Q1024 TEMPO 1200 BKN004
Conditions at: LYBE (BELGRADE/SURCIN , CS) observed 1500 UTC 06 December 2019
Temperature: 2.0°C (36°F)
Dewpoint: 1.0°C (34°F) [RH = 93%]
Pressure (altimeter): 30.24 inches Hg (1024.0 mb)
Winds: variable direction winds at 2 MPH (2 knots; 1.0 m/s)
Visibility: 1.55 miles (2.49 km)
Ceiling: at least 12,000 feet AGL
Clouds: sky clear below 12,000 feet AGL
Weather: BR  (mist)

METAR text: LYBE 061430Z 03004KT 2000 BR NSC 03/01 Q1024 TEMPO 1200 BKN004
Conditions at: LYBE (BELGRADE/SURCIN , CS) observed 1430 UTC 06 December 2019
Temperature: 3.0°C (37°F)
Dewpoint: 1.0°C (34°F) [RH = 87%]
Pressure (altimeter): 30.24 inches Hg (1024.0 mb)
Winds: from the NNE (30 degrees) at 5 MPH (4 knots; 2.1 m/s)
Visibility: 1.24 miles (2.00 km)
Ceiling: at least 12,000 feet AGL
Clouds: sky clear below 12,000 feet AGL
Weather: BR  (mist)

METAR text: LYBE 061400Z 36003KT 3000 BR NSC 03/01 Q1024 NOSIG
Conditions at: LYBE (BELGRADE/SURCIN , CS) observed 1400 UTC 06 December 2019
Temperature: 3.0°C (37°F)
Dewpoint: 1.0°C (34°F) [RH = 87%]
Pressure (altimeter): 30.24 inches Hg (1024.0 mb)
Winds: from the N (360 degrees) at 3 MPH (3 knots; 1.5 m/s)
Visibility: 1.86 miles (2.99 km)
Ceiling: at least 12,000 feet AGL
Clouds: sky clear below 12,000 feet AGL
Weather: BR  (mist)

METAR text: LYBE 061330Z 36003KT 330V030 3500 BR NSC 03/01 Q1024 NOSIG
Conditions at: LYBE (BELGRADE/SURCIN , CS) observed 1330 UTC 06 December 2019
Temperature: 3.0°C (37°F)
Dewpoint: 1.0°C (34°F) [RH = 87%]
Pressure (altimeter): 30.24 inches Hg (1024.0 mb)
Winds: from the N (360 degrees) at 3 MPH (3 knots; 1.5 m/s)
Visibility: 2.17 miles (3.49 km)
Ceiling: at least 12,000 feet AGL
Clouds: sky clear below 12,000 feet AGL
Weather: BR  (mist)

METAR text: LYBE 061300Z 33003KT 270V020 4000 BR NSC 02/01 Q1024 NOSIG
Conditions at: LYBE (BELGRADE/SURCIN , CS) observed 1300 UTC 06 December 2019
Temperature: 2.0°C (36°F)
Dewpoint: 1.0°C (34°F) [RH = 93%]
Pressure (altimeter): 30.24 inches Hg (1024.0 mb)
Winds: from the NNW (330 degrees) at 3 MPH (3 knots; 1.5 m/s)
Visibility: 2.49 miles (4.01 km)
Ceiling: at least 12,000 feet AGL
Clouds: sky clear below 12,000 feet AGL
Weather: BR  (mist)

METAR text: LYBE 061230Z VRB01KT 4000 BR FEW005 02/00 Q1025 NOSIG
Conditions at: LYBE (BELGRADE/SURCIN , CS) observed 1230 UTC 06 December 2019
Temperature: 2.0°C (36°F)
Dewpoint: 0.0°C (32°F) [RH = 87%]
Pressure (altimeter): 30.27 inches Hg (1025.0 mb)
Winds: variable direction winds at 1 MPH (1 knots; 0.5 m/s)
Visibility: 2.49 miles (4.01 km)
Ceiling: at least 12,000 feet AGL
Clouds: few clouds at 500 feet AGL
Weather: BR  (mist)

METAR text: LYBE 061200Z VRB01KT 3500 BR BKN005 01/00 Q1025 NOSIG
Conditions at: LYBE (BELGRADE/SURCIN , CS) observed 1200 UTC 06 December 2019
Temperature: 1.0°C (34°F)
Dewpoint: 0.0°C (32°F) [RH = 93%]
Pressure (altimeter): 30.27 inches Hg (1025.0 mb)
Winds: variable direction winds at 1 MPH (1 knots; 0.5 m/s)
Visibility: 2.17 miles (3.49 km)
Ceiling: 500 feet AGL
Clouds: broken clouds at 500 feet AGL
Weather: BR  (mist)

METAR text: LYBE 061130Z 13004KT 110V180 2500 BR BKN004 00/M00 Q1025 NOSIG
Conditions at: LYBE (BELGRADE/SURCIN , CS) observed 1130 UTC 06 December 2019
Temperature: 0.0°C (32°F)
Dewpoint: 0.0°C (32°F) [RH = 100%]
Pressure (altimeter): 30.27 inches Hg (1025.0 mb)
Winds: from the SE (130 degrees) at 5 MPH (4 knots; 2.1 m/s)
Visibility: 1.55 miles (2.49 km)
Ceiling: 400 feet AGL
Clouds: broken clouds at 400 feet AGL
Weather: BR  (mist)

METAR text: LYBE 061100Z 18003KT 110V210 2000 BR OVC003 00/M00 Q1026 NOSIG
Conditions at: LYBE (BELGRADE/SURCIN , CS) observed 1100 UTC 06 December 2019
Temperature: 0.0°C (32°F)
Dewpoint: 0.0°C (32°F) [RH = 100%]
Pressure (altimeter): 30.30 inches Hg (1026.0 mb)
Winds: from the S (180 degrees) at 3 MPH (3 knots; 1.5 m/s)
Visibility: 1.24 miles (2.00 km)
Ceiling: 300 feet AGL
Clouds: overcast cloud deck at 300 feet AGL
Weather: BR  (mist)

METAR text: LYBE 061030Z 17004KT 130V190 1500 BR OVC002 M00/M00 Q1026 NOSIG
Conditions at: LYBE (BELGRADE/SURCIN , CS) observed 1030 UTC 06 December 2019
Temperature: 0.0°C (32°F)
Dewpoint: 0.0°C (32°F) [RH = 100%]
Pressure (altimeter): 30.30 inches Hg (1026.0 mb)
Winds: from the S (170 degrees) at 5 MPH (4 knots; 2.1 m/s)
Visibility: 0.93 miles (1.50 km)
Ceiling: 200 feet AGL
Clouds: overcast cloud deck at 200 feet AGL
Weather: BR  (mist)

METAR text: LYBE 061000Z 16005KT 130V190 1500 BR OVC002 M00/M00 Q1027 TEMPO 1000 OVC001
Conditions at: LYBE (BELGRADE/SURCIN , CS) observed 1000 UTC 06 December 2019
Temperature: 0.0°C (32°F)
Dewpoint: 0.0°C (32°F) [RH = 100%]
Pressure (altimeter): 30.32 inches Hg (1027.0 mb)
Winds: from the SSE (160 degrees) at 6 MPH (5 knots; 2.6 m/s)
Visibility: 0.93 miles (1.50 km)
Ceiling: 200 feet AGL
Clouds: overcast cloud deck at 200 feet AGL
Weather: BR  (mist)

METAR text: LYBE 060930Z 18004KT 130V210 1200 R12/1800N R30/1600D BR OVC002 M00/M01 Q1027 TEMPO 0800 FZFG VV002
Conditions at: LYBE (BELGRADE/SURCIN , CS) observed 0930 UTC 06 December 2019
Temperature: 0.0°C (32°F)
Dewpoint: -1.0°C (30°F) [RH = 93%]
Pressure (altimeter): 30.32 inches Hg (1027.0 mb)
Winds: from the S (180 degrees) at 5 MPH (4 knots; 2.1 m/s)
Visibility: 0.75 miles (1.21 km)
Ceiling: 200 feet AGL
Clouds: overcast cloud deck at 200 feet AGL
Weather: BR  (mist)

METAR text: LYBE 060900Z 18005KT 150V220 1200 R12/1200U R30/1700U BR OVC002 M00/M01 Q1027 TEMPO 0800 FZFG VV002
Conditions at: LYBE (BELGRADE/SURCIN , CS) observed 0900 UTC 06 December 2019
Temperature: 0.0°C (32°F)
Dewpoint: -1.0°C (30°F) [RH = 93%]
Pressure (altimeter): 30.32 inches Hg (1027.0 mb)
Winds: from the S (180 degrees) at 6 MPH (5 knots; 2.6 m/s)
Visibility: 0.75 miles (1.21 km)
Ceiling: 200 feet AGL
Clouds: overcast cloud deck at 200 feet AGL
Weather: BR  (mist)

METAR text: LYBE 060830Z VRB03KT 2000 BR OVC002 M00/M01 Q1027 TEMPO 1000
Conditions at: LYBE (BELGRADE/SURCIN , CS) observed 0830 UTC 06 December 2019
Temperature: 0.0°C (32°F)
Dewpoint: -1.0°C (30°F) [RH = 93%]
Pressure (altimeter): 30.32 inches Hg (1027.0 mb)
Winds: variable direction winds at 3 MPH (3 knots; 1.5 m/s)
Visibility: 1.24 miles (2.00 km)
Ceiling: 200 feet AGL
Clouds: overcast cloud deck at 200 feet AGL
Weather: BR  (mist)

METAR text: LYBE 060800Z 17004KT 2000 BR OVC003 M00/M01 Q1028 NOSIG
Conditions at: LYBE (BELGRADE/SURCIN , CS) observed 0800 UTC 06 December 2019
Temperature: 0.0°C (32°F)
Dewpoint: -1.0°C (30°F) [RH = 93%]
Pressure (altimeter): 30.35 inches Hg (1028.0 mb)
Winds: from the S (170 degrees) at 5 MPH (4 knots; 2.1 m/s)
Visibility: 1.24 miles (2.00 km)
Ceiling: 300 feet AGL
Clouds: overcast cloud deck at 300 feet AGL
Weather: BR  (mist)

METAR text: LYBE 060730Z 18004KT 2500 BR OVC003 M00/M01 Q1028 NOSIG
Conditions at: LYBE (BELGRADE/SURCIN , CS) observed 0730 UTC 06 December 2019
Temperature: 0.0°C (32°F)
Dewpoint: -1.0°C (30°F) [RH = 93%]
Pressure (altimeter): 30.35 inches Hg (1028.0 mb)
Winds: from the S (180 degrees) at 5 MPH (4 knots; 2.1 m/s)
Visibility: 1.55 miles (2.49 km)
Ceiling: 300 feet AGL
Clouds: overcast cloud deck at 300 feet AGL
Weather: BR  (mist)

METAR text: LYBE 060700Z 18003KT 2500 BR OVC003 M00/M01 Q1028 NOSIG
Conditions at: LYBE (BELGRADE/SURCIN , CS) observed 0700 UTC 06 December 2019
Temperature: 0.0°C (32°F)
Dewpoint: -1.0°C (30°F) [RH = 93%]
Pressure (altimeter): 30.35 inches Hg (1028.0 mb)
Winds: from the S (180 degrees) at 3 MPH (3 knots; 1.5 m/s)
Visibility: 1.55 miles (2.49 km)
Ceiling: 300 feet AGL
Clouds: overcast cloud deck at 300 feet AGL
Weather: BR  (mist)

METAR text: LYBE 060630Z 16003KT 110V180 2000 BR OVC003 M00/M01 Q1027 TEMPO 1000
Conditions at: LYBE (BELGRADE/SURCIN , CS) observed 0630 UTC 06 December 2019
Temperature: 0.0°C (32°F)
Dewpoint: -1.0°C (30°F) [RH = 93%]
Pressure (altimeter): 30.32 inches Hg (1027.0 mb)
Winds: from the SSE (160 degrees) at 3 MPH (3 knots; 1.5 m/s)
Visibility: 1.24 miles (2.00 km)
Ceiling: 300 feet AGL
Clouds: overcast cloud deck at 300 feet AGL
Weather: BR  (mist)

METAR text: LYBE 060600Z 16003KT 3500 BR OVC003 M01/M01 Q1027 TEMPO 2000
Conditions at: LYBE (BELGRADE/SURCIN , CS) observed 0600 UTC 06 December 2019
Temperature: -1.0°C (30°F)
Dewpoint: -1.0°C (30°F) [RH = 100%]
Pressure (altimeter): 30.32 inches Hg (1027.0 mb)
Winds: from the SSE (160 degrees) at 3 MPH (3 knots; 1.5 m/s)
Visibility: 2.17 miles (3.49 km)
Ceiling: 300 feet AGL
Clouds: overcast cloud deck at 300 feet AGL
Weather: BR  (mist)

METAR text: LYBE 060530Z 10002KT 4000 BR OVC003 M01/M01 Q1027 TEMPO 2000
Conditions at: LYBE (BELGRADE/SURCIN , CS) observed 0530 UTC 06 December 2019
Temperature: -1.0°C (30°F)
Dewpoint: -1.0°C (30°F) [RH = 100%]
Pressure (altimeter): 30.32 inches Hg (1027.0 mb)
Winds: from the E (100 degrees) at 2 MPH (2 knots; 1.0 m/s)
Visibility: 2.49 miles (4.01 km)
Ceiling: 300 feet AGL
Clouds: overcast cloud deck at 300 feet AGL
Weather: BR  (mist)

METAR text: LYBE 060500Z VRB01KT 4500 BR OVC004 M01/M01 Q1027 TEMPO 2000 OVC003
Conditions at: LYBE (BELGRADE/SURCIN , CS) observed 0500 UTC 06 December 2019
Temperature: -1.0°C (30°F)
Dewpoint: -1.0°C (30°F) [RH = 100%]
Pressure (altimeter): 30.32 inches Hg (1027.0 mb)
Winds: variable direction winds at 1 MPH (1 knots; 0.5 m/s)
Visibility: 2.80 miles (4.51 km)
Ceiling: 400 feet AGL
Clouds: overcast cloud deck at 400 feet AGL
Weather: BR  (mist)

METAR text: LYBE 060430Z VRB02KT 4500 BR OVC004 M01/M01 Q1027 TEMPO 2000 OVC003
Conditions at: LYBE (BELGRADE/SURCIN , CS) observed 0430 UTC 06 December 2019
Temperature: -1.0°C (30°F)
Dewpoint: -1.0°C (30°F) [RH = 100%]
Pressure (altimeter): 30.32 inches Hg (1027.0 mb)
Winds: variable direction winds at 2 MPH (2 knots; 1.0 m/s)
Visibility: 2.80 miles (4.51 km)
Ceiling: 400 feet AGL
Clouds: overcast cloud deck at 400 feet AGL
Weather: BR  (mist)

METAR text: LYBE 060400Z 16003KT 120V200 5000 BR OVC004 M00/M01 Q1027 TEMPO 1500
Conditions at: LYBE (BELGRADE/SURCIN , CS) observed 0400 UTC 06 December 2019
Temperature: 0.0°C (32°F)
Dewpoint: -1.0°C (30°F) [RH = 93%]
Pressure (altimeter): 30.32 inches Hg (1027.0 mb)
Winds: from the SSE (160 degrees) at 3 MPH (3 knots; 1.5 m/s)
Visibility: 3 miles ( 5 km)
Ceiling: 400 feet AGL
Clouds: overcast cloud deck at 400 feet AGL
Weather: BR  (mist)

METAR text: LYBE 060330Z 15004KT 130V190 5000 BR OVC005 M00/M01 Q1027 NOSIG
Conditions at: LYBE (BELGRADE/SURCIN , CS) observed 0330 UTC 06 December 2019
Temperature: 0.0°C (32°F)
Dewpoint: -1.0°C (30°F) [RH = 93%]
Pressure (altimeter): 30.32 inches Hg (1027.0 mb)
Winds: from the SSE (150 degrees) at 5 MPH (4 knots; 2.1 m/s)
Visibility: 3 miles ( 5 km)
Ceiling: 500 feet AGL
Clouds: overcast cloud deck at 500 feet AGL
Weather: BR  (mist)

METAR text: LYBE 060300Z VRB02KT 6000 OVC006 M00/M01 Q1027 NOSIG
Conditions at: LYBE (BELGRADE/SURCIN , CS) observed 0300 UTC 06 December 2019
Temperature: 0.0°C (32°F)
Dewpoint: -1.0°C (30°F) [RH = 93%]
Pressure (altimeter): 30.32 inches Hg (1027.0 mb)
Winds: variable direction winds at 2 MPH (2 knots; 1.0 m/s)
Visibility: 4 miles ( 6 km)
Ceiling: 600 feet AGL
Clouds: overcast cloud deck at 600 feet AGL
Weather: no significant weather observed at this time

METAR text: LYBE 060230Z VRB02KT 6000 OVC006 M00/M01 Q1027 NOSIG
Conditions at: LYBE (BELGRADE/SURCIN , CS) observed 0230 UTC 06 December 2019
Temperature: 0.0°C (32°F)
Dewpoint: -1.0°C (30°F) [RH = 93%]
Pressure (altimeter): 30.32 inches Hg (1027.0 mb)
Winds: variable direction winds at 2 MPH (2 knots; 1.0 m/s)
Visibility: 4 miles ( 6 km)
Ceiling: 600 feet AGL
Clouds: overcast cloud deck at 600 feet AGL
Weather: no significant weather observed at this time

METAR text: LYBE 060200Z 26003KT 220V290 6000 OVC006 M00/M01 Q1027 NOSIG
Conditions at: LYBE (BELGRADE/SURCIN , CS) observed 0200 UTC 06 December 2019
Temperature: 0.0°C (32°F)
Dewpoint: -1.0°C (30°F) [RH = 93%]
Pressure (altimeter): 30.32 inches Hg (1027.0 mb)
Winds: from the W (260 degrees) at 3 MPH (3 knots; 1.5 m/s)
Visibility: 4 miles ( 6 km)
Ceiling: 600 feet AGL
Clouds: overcast cloud deck at 600 feet AGL
Weather: no significant weather observed at this time

METAR text: LYBE 060130Z 23003KT 180V280 6000 OVC006 M00/M01 Q1028 NOSIG
Conditions at: LYBE (BELGRADE/SURCIN , CS) observed 0130 UTC 06 December 2019
Temperature: 0.0°C (32°F)
Dewpoint: -1.0°C (30°F) [RH = 93%]
Pressure (altimeter): 30.35 inches Hg (1028.0 mb)
Winds: from the SW (230 degrees) at 3 MPH (3 knots; 1.5 m/s)
Visibility: 4 miles ( 6 km)
Ceiling: 600 feet AGL
Clouds: overcast cloud deck at 600 feet AGL
Weather: no significant weather observed at this time

METAR text: LYBE 060100Z VRB02KT 6000 OVC006 M00/M01 Q1028 NOSIG
Conditions at: LYBE (BELGRADE/SURCIN , CS) observed 0100 UTC 06 December 2019
Temperature: 0.0°C (32°F)
Dewpoint: -1.0°C (30°F) [RH = 93%]
Pressure (altimeter): 30.35 inches Hg (1028.0 mb)
Winds: variable direction winds at 2 MPH (2 knots; 1.0 m/s)
Visibility: 4 miles ( 6 km)
Ceiling: 600 feet AGL
Clouds: overcast cloud deck at 600 feet AGL
Weather: no significant weather observed at this time

METAR text: LYBE 060030Z 24004KT 6000 OVC007 M00/M01 Q1028 NOSIG
Conditions at: LYBE (BELGRADE/SURCIN , CS) observed 0030 UTC 06 December 2019
Temperature: 0.0°C (32°F)
Dewpoint: -1.0°C (30°F) [RH = 93%]
Pressure (altimeter): 30.35 inches Hg (1028.0 mb)
Winds: from the WSW (240 degrees) at 5 MPH (4 knots; 2.1 m/s)
Visibility: 4 miles ( 6 km)
Ceiling: 700 feet AGL
Clouds: overcast cloud deck at 700 feet AGL
Weather: no significant weather observed at this time

METAR text: LYBE 060000Z 27003KT 240V300 6000 OVC007 M00/M01 Q1028 NOSIG
Conditions at: LYBE (BELGRADE/SURCIN , CS) observed 0000 UTC 06 December 2019
Temperature: 0.0°C (32°F)
Dewpoint: -1.0°C (30°F) [RH = 93%]
Pressure (altimeter): 30.35 inches Hg (1028.0 mb)
Winds: from the W (270 degrees) at 3 MPH (3 knots; 1.5 m/s)
Visibility: 4 miles ( 6 km)
Ceiling: 700 feet AGL
Clouds: overcast cloud deck at 700 feet AGL
Weather: no significant weather observed at this time

METAR text: LYBE 052330Z 27003KT 6000 OVC007 00/M01 Q1028 NOSIG
Conditions at: LYBE (BELGRADE/SURCIN , CS) observed 2330 UTC 05 December 2019
Temperature: 0.0°C (32°F)
Dewpoint: -1.0°C (30°F) [RH = 93%]
Pressure (altimeter): 30.35 inches Hg (1028.0 mb)
Winds: from the W (270 degrees) at 3 MPH (3 knots; 1.5 m/s)
Visibility: 4 miles ( 6 km)
Ceiling: 700 feet AGL
Clouds: overcast cloud deck at 700 feet AGL
Weather: no significant weather observed at this time

METAR text: LYBE 052300Z 28003KT 250V320 6000 OVC007 00/M01 Q1028 NOSIG
Conditions at: LYBE (BELGRADE/SURCIN , CS) observed 2300 UTC 05 December 2019
Temperature: 0.0°C (32°F)
Dewpoint: -1.0°C (30°F) [RH = 93%]
Pressure (altimeter): 30.35 inches Hg (1028.0 mb)
Winds: from the W (280 degrees) at 3 MPH (3 knots; 1.5 m/s)
Visibility: 4 miles ( 6 km)
Ceiling: 700 feet AGL
Clouds: overcast cloud deck at 700 feet AGL
Weather: no significant weather observed at this time

METAR text: LYBE 052230Z 29003KT 260V320 6000 OVC007 M00/M02 Q1028 NOSIG
Conditions at: LYBE (BELGRADE/SURCIN , CS) observed 2230 UTC 05 December 2019
Temperature: 0.0°C (32°F)
Dewpoint: -2.0°C (28°F) [RH = 86%]
Pressure (altimeter): 30.35 inches Hg (1028.0 mb)
Winds: from the WNW (290 degrees) at 3 MPH (3 knots; 1.5 m/s)
Visibility: 4 miles ( 6 km)
Ceiling: 700 feet AGL
Clouds: overcast cloud deck at 700 feet AGL
Weather: no significant weather observed at this time

METAR text: LYBE 052200Z 29003KT 6000 OVC007 00/M01 Q1029 NOSIG
Conditions at: LYBE (BELGRADE/SURCIN , CS) observed 2200 UTC 05 December 2019
Temperature: 0.0°C (32°F)
Dewpoint: -1.0°C (30°F) [RH = 93%]
Pressure (altimeter): 30.38 inches Hg (1029.0 mb)
Winds: from the WNW (290 degrees) at 3 MPH (3 knots; 1.5 m/s)
Visibility: 4 miles ( 6 km)
Ceiling: 700 feet AGL
Clouds: overcast cloud deck at 700 feet AGL
Weather: no significant weather observed at this time

METAR text: LYBE 052130Z 28003KT 250V310 6000 OVC008 M00/M01 Q1029 NOSIG
Conditions at: LYBE (BELGRADE/SURCIN , CS) observed 2130 UTC 05 December 2019
Temperature: 0.0°C (32°F)
Dewpoint: -1.0°C (30°F) [RH = 93%]
Pressure (altimeter): 30.38 inches Hg (1029.0 mb)
Winds: from the W (280 degrees) at 3 MPH (3 knots; 1.5 m/s)
Visibility: 4 miles ( 6 km)
Ceiling: 800 feet AGL
Clouds: overcast cloud deck at 800 feet AGL
Weather: no significant weather observed at this time

METAR text: LYBE 052100Z VRB02KT 7000 OVC008 M00/M01 Q1029 NOSIG
Conditions at: LYBE (BELGRADE/SURCIN , CS) observed 2100 UTC 05 December 2019
Temperature: 0.0°C (32°F)
Dewpoint: -1.0°C (30°F) [RH = 93%]
Pressure (altimeter): 30.38 inches Hg (1029.0 mb)
Winds: variable direction winds at 2 MPH (2 knots; 1.0 m/s)
Visibility: 4 miles ( 7 km)
Ceiling: 800 feet AGL
Clouds: overcast cloud deck at 800 feet AGL
Weather: no significant weather observed at this time

METAR text: LYBE 052030Z 28003KT 7000 OVC008 M00/M01 Q1029 NOSIG
Conditions at: LYBE (BELGRADE/SURCIN , CS) observed 2030 UTC 05 December 2019
Temperature: 0.0°C (32°F)
Dewpoint: -1.0°C (30°F) [RH = 93%]
Pressure (altimeter): 30.38 inches Hg (1029.0 mb)
Winds: from the W (280 degrees) at 3 MPH (3 knots; 1.5 m/s)
Visibility: 4 miles ( 7 km)
Ceiling: 800 feet AGL
Clouds: overcast cloud deck at 800 feet AGL
Weather: no significant weather observed at this time

METAR text: LYBE 052000Z 28003KT 6000 OVC008 M00/M01 Q1029 NOSIG
Conditions at: LYBE (BELGRADE/SURCIN , CS) observed 2000 UTC 05 December 2019
Temperature: 0.0°C (32°F)
Dewpoint: -1.0°C (30°F) [RH = 93%]
Pressure (altimeter): 30.38 inches Hg (1029.0 mb)
Winds: from the W (280 degrees) at 3 MPH (3 knots; 1.5 m/s)
Visibility: 4 miles ( 6 km)
Ceiling: 800 feet AGL
Clouds: overcast cloud deck at 800 feet AGL
Weather: no significant weather observed at this time

METAR text: LYBE 051930Z 27004KT 6000 OVC008 00/M01 Q1029 NOSIG
Conditions at: LYBE (BELGRADE/SURCIN , CS) observed 1930 UTC 05 December 2019
Temperature: 0.0°C (32°F)
Dewpoint: -1.0°C (30°F) [RH = 93%]
Pressure (altimeter): 30.38 inches Hg (1029.0 mb)
Winds: from the W (270 degrees) at 5 MPH (4 knots; 2.1 m/s)
Visibility: 4 miles ( 6 km)
Ceiling: 800 feet AGL
Clouds: overcast cloud deck at 800 feet AGL
Weather: no significant weather observed at this time

METAR text: LYBE 051900Z 26005KT 6000 OVC008 00/M01 Q1029 NOSIG
Conditions at: LYBE (BELGRADE/SURCIN , CS) observed 1900 UTC 05 December 2019
Temperature: 0.0°C (32°F)
Dewpoint: -1.0°C (30°F) [RH = 93%]
Pressure (altimeter): 30.38 inches Hg (1029.0 mb)
Winds: from the W (260 degrees) at 6 MPH (5 knots; 2.6 m/s)
Visibility: 4 miles ( 6 km)
Ceiling: 800 feet AGL
Clouds: overcast cloud deck at 800 feet AGL
Weather: no significant weather observed at this time

METAR text: LYBE 051830Z 25005KT 7000 OVC008 00/M01 Q1029 NOSIG
Conditions at: LYBE (BELGRADE/SURCIN , CS) observed 1830 UTC 05 December 2019
Temperature: 0.0°C (32°F)
Dewpoint: -1.0°C (30°F) [RH = 93%]
Pressure (altimeter): 30.38 inches Hg (1029.0 mb)
Winds: from the WSW (250 degrees) at 6 MPH (5 knots; 2.6 m/s)
Visibility: 4 miles ( 7 km)
Ceiling: 800 feet AGL
Clouds: overcast cloud deck at 800 feet AGL
Weather: no significant weather observed at this time

METAR text: LYBE 051800Z 25005KT 7000 OVC009 00/M01 Q1029 NOSIG
Conditions at: LYBE (BELGRADE/SURCIN , CS) observed 1800 UTC 05 December 2019
Temperature: 0.0°C (32°F)
Dewpoint: -1.0°C (30°F) [RH = 93%]
Pressure (altimeter): 30.38 inches Hg (1029.0 mb)
Winds: from the WSW (250 degrees) at 6 MPH (5 knots; 2.6 m/s)
Visibility: 4 miles ( 7 km)
Ceiling: 900 feet AGL
Clouds: overcast cloud deck at 900 feet AGL
Weather: no significant weather observed at this time

METAR text: LYBE 051730Z 27006KT 7000 OVC009 00/M01 Q1029 NOSIG
Conditions at: LYBE (BELGRADE/SURCIN , CS) observed 1730 UTC 05 December 2019
Temperature: 0.0°C (32°F)
Dewpoint: -1.0°C (30°F) [RH = 93%]
Pressure (altimeter): 30.38 inches Hg (1029.0 mb)
Winds: from the W (270 degrees) at 7 MPH (6 knots; 3.1 m/s)
Visibility: 4 miles ( 7 km)
Ceiling: 900 feet AGL
Clouds: overcast cloud deck at 900 feet AGL
Weather: no significant weather observed at this time

METAR text: LYBE 051700Z 28006KT 7000 OVC009 00/M01 Q1029 NOSIG
Conditions at: LYBE (BELGRADE/SURCIN , CS) observed 1700 UTC 05 December 2019
Temperature: 0.0°C (32°F)
Dewpoint: -1.0°C (30°F) [RH = 93%]
Pressure (altimeter): 30.38 inches Hg (1029.0 mb)
Winds: from the W (280 degrees) at 7 MPH (6 knots; 3.1 m/s)
Visibility: 4 miles ( 7 km)
Ceiling: 900 feet AGL
Clouds: overcast cloud deck at 900 feet AGL
Weather: no significant weather observed at this time

METAR text: LYBE 051630Z 26006KT 220V280 7000 OVC009 00/M01 Q1029 NOSIG
Conditions at: LYBE (BELGRADE/SURCIN , CS) observed 1630 UTC 05 December 2019
Temperature: 0.0°C (32°F)
Dewpoint: -1.0°C (30°F) [RH = 93%]
Pressure (altimeter): 30.38 inches Hg (1029.0 mb)
Winds: from the W (260 degrees) at 7 MPH (6 knots; 3.1 m/s)
Visibility: 4 miles ( 7 km)
Ceiling: 900 feet AGL
Clouds: overcast cloud deck at 900 feet AGL
Weather: no significant weather observed at this time

METAR text: LYBE 051600Z 26005KT 7000 OVC008 00/M01 Q1029 NOSIG
Conditions at: LYBE (BELGRADE/SURCIN , CS) observed 1600 UTC 05 December 2019
Temperature: 0.0°C (32°F)
Dewpoint: -1.0°C (30°F) [RH = 93%]
Pressure (altimeter): 30.38 inches Hg (1029.0 mb)
Winds: from the W (260 degrees) at 6 MPH (5 knots; 2.6 m/s)
Visibility: 4 miles ( 7 km)
Ceiling: 800 feet AGL
Clouds: overcast cloud deck at 800 feet AGL
Weather: no significant weather observed at this time

METAR text: LYBE 051530Z 23006KT 8000 OVC008 00/M01 Q1029 NOSIG
Conditions at: LYBE (BELGRADE/SURCIN , CS) observed 1530 UTC 05 December 2019
Temperature: 0.0°C (32°F)
Dewpoint: -1.0°C (30°F) [RH = 93%]
Pressure (altimeter): 30.38 inches Hg (1029.0 mb)
Winds: from the SW (230 degrees) at 7 MPH (6 knots; 3.1 m/s)
Visibility: 5 miles ( 8 km)
Ceiling: 800 feet AGL
Clouds: overcast cloud deck at 800 feet AGL
Weather: no significant weather observed at this time

METAR text: LYBE 051500Z 24006KT 5000 BR OVC007 00/M01 Q1029 NOSIG
Conditions at: LYBE (BELGRADE/SURCIN , CS) observed 1500 UTC 05 December 2019
Temperature: 0.0°C (32°F)
Dewpoint: -1.0°C (30°F) [RH = 93%]
Pressure (altimeter): 30.38 inches Hg (1029.0 mb)
Winds: from the WSW (240 degrees) at 7 MPH (6 knots; 3.1 m/s)
Visibility: 3 miles ( 5 km)
Ceiling: 700 feet AGL
Clouds: overcast cloud deck at 700 feet AGL
Weather: BR  (mist)

METAR text: LYBE 051430Z 22005KT 5000 BR BKN007 00/M01 Q1029 NOSIG
Conditions at: LYBE (BELGRADE/SURCIN , CS) observed 1430 UTC 05 December 2019
Temperature: 0.0°C (32°F)
Dewpoint: -1.0°C (30°F) [RH = 93%]
Pressure (altimeter): 30.38 inches Hg (1029.0 mb)
Winds: from the SW (220 degrees) at 6 MPH (5 knots; 2.6 m/s)
Visibility: 3 miles ( 5 km)
Ceiling: 700 feet AGL
Clouds: broken clouds at 700 feet AGL
Weather: BR  (mist)

METAR text: LYBE 051400Z 24006KT 5000 BR BKN007 00/M01 Q1029 NOSIG
Conditions at: LYBE (BELGRADE/SURCIN , CS) observed 1400 UTC 05 December 2019
Temperature: 0.0°C (32°F)
Dewpoint: -1.0°C (30°F) [RH = 93%]
Pressure (altimeter): 30.38 inches Hg (1029.0 mb)
Winds: from the WSW (240 degrees) at 7 MPH (6 knots; 3.1 m/s)
Visibility: 3 miles ( 5 km)
Ceiling: 700 feet AGL
Clouds: broken clouds at 700 feet AGL
Weather: BR  (mist)

METAR text: LYBE 051330Z 26006KT 5000 BR BKN007 00/M01 Q1029 NOSIG
Conditions at: LYBE (BELGRADE/SURCIN , CS) observed 1330 UTC 05 December 2019
Temperature: 0.0°C (32°F)
Dewpoint: -1.0°C (30°F) [RH = 93%]
Pressure (altimeter): 30.38 inches Hg (1029.0 mb)
Winds: from the W (260 degrees) at 7 MPH (6 knots; 3.1 m/s)
Visibility: 3 miles ( 5 km)
Ceiling: 700 feet AGL
Clouds: broken clouds at 700 feet AGL
Weather: BR  (mist)

METAR text: LYBE 051300Z 26006KT 4000 BR BKN006 00/M01 Q1029 NOSIG
Conditions at: LYBE (BELGRADE/SURCIN , CS) observed 1300 UTC 05 December 2019
Temperature: 0.0°C (32°F)
Dewpoint: -1.0°C (30°F) [RH = 93%]
Pressure (altimeter): 30.38 inches Hg (1029.0 mb)
Winds: from the W (260 degrees) at 7 MPH (6 knots; 3.1 m/s)
Visibility: 2.49 miles (4.01 km)
Ceiling: 600 feet AGL
Clouds: broken clouds at 600 feet AGL
Weather: BR  (mist)

METAR text: LYBE 051230Z 26006KT 4000 BR BKN006 00/M01 Q1029 NOSIG
Conditions at: LYBE (BELGRADE/SURCIN , CS) observed 1230 UTC 05 December 2019
Temperature: 0.0°C (32°F)
Dewpoint: -1.0°C (30°F) [RH = 93%]
Pressure (altimeter): 30.38 inches Hg (1029.0 mb)
Winds: from the W (260 degrees) at 7 MPH (6 knots; 3.1 m/s)
Visibility: 2.49 miles (4.01 km)
Ceiling: 600 feet AGL
Clouds: broken clouds at 600 feet AGL
Weather: BR  (mist)

METAR text: LYBE 051200Z 26006KT 4000 BR BKN006 00/M01 Q1029 TEMPO 2000 BKN003
Conditions at: LYBE (BELGRADE/SURCIN , CS) observed 1200 UTC 05 December 2019
Temperature: 0.0°C (32°F)
Dewpoint: -1.0°C (30°F) [RH = 93%]
Pressure (altimeter): 30.38 inches Hg (1029.0 mb)
Winds: from the W (260 degrees) at 7 MPH (6 knots; 3.1 m/s)
Visibility: 2.49 miles (4.01 km)
Ceiling: 600 feet AGL
Clouds: broken clouds at 600 feet AGL
Weather: BR  (mist)

METAR text: LYBE 051130Z 28004KT 4000 BR BKN006 00/M00 Q1029 TEMPO 2000 BKN003
Conditions at: LYBE (BELGRADE/SURCIN , CS) observed 1130 UTC 05 December 2019
Temperature: 0.0°C (32°F)
Dewpoint: 0.0°C (32°F) [RH = 100%]
Pressure (altimeter): 30.38 inches Hg (1029.0 mb)
Winds: from the W (280 degrees) at 5 MPH (4 knots; 2.1 m/s)
Visibility: 2.49 miles (4.01 km)
Ceiling: 600 feet AGL
Clouds: broken clouds at 600 feet AGL
Weather: BR  (mist)

METAR text: LYBE 051100Z 30005KT 270V330 4000 BR NSC 00/M01 Q1029 TEMPO 5000 BKN005
Conditions at: LYBE (BELGRADE/SURCIN , CS) observed 1100 UTC 05 December 2019
Temperature: 0.0°C (32°F)
Dewpoint: -1.0°C (30°F) [RH = 93%]
Pressure (altimeter): 30.38 inches Hg (1029.0 mb)
Winds: from the WNW (300 degrees) at 6 MPH (5 knots; 2.6 m/s)
Visibility: 2.49 miles (4.01 km)
Ceiling: at least 12,000 feet AGL
Clouds: sky clear below 12,000 feet AGL
Weather: BR  (mist)

METAR text: LYBE 051030Z 27006KT 2000 BR BKN003 M01/M01 Q1029 NOSIG
Conditions at: LYBE (BELGRADE/SURCIN , CS) observed 1030 UTC 05 December 2019
Temperature: -1.0°C (30°F)
Dewpoint: -1.0°C (30°F) [RH = 100%]
Pressure (altimeter): 30.38 inches Hg (1029.0 mb)
Winds: from the W (270 degrees) at 7 MPH (6 knots; 3.1 m/s)
Visibility: 1.24 miles (2.00 km)
Ceiling: 300 feet AGL
Clouds: broken clouds at 300 feet AGL
Weather: BR  (mist)

METAR text: LYBE 051000Z 25008KT 0900 R12/1200N R30/P2000U FZFG BKN001 M01/M01 Q1029 BECMG 1200 BR
Conditions at: LYBE (BELGRADE/SURCIN , CS) observed 1000 UTC 05 December 2019
Temperature: -1.0°C (30°F)
Dewpoint: -1.0°C (30°F) [RH = 100%]
Pressure (altimeter): 30.38 inches Hg (1029.0 mb)
Winds: from the WSW (250 degrees) at 9 MPH (8 knots; 4.1 m/s)
Visibility: 0.56 miles (0.90 km)
Ceiling: 100 feet AGL
Clouds: broken clouds at 100 feet AGL
Weather: FZFG  (freezing fog)

METAR text: LYBE 050930Z 24008KT 3500 BR NSC 00/M01 Q1030 TEMPO 1500
Conditions at: LYBE (BELGRADE/SURCIN , CS) observed 0930 UTC 05 December 2019
Temperature: 0.0°C (32°F)
Dewpoint: -1.0°C (30°F) [RH = 93%]
Pressure (altimeter): 30.41 inches Hg (1030.0 mb)
Winds: from the WSW (240 degrees) at 9 MPH (8 knots; 4.1 m/s)
Visibility: 2.17 miles (3.49 km)
Ceiling: at least 12,000 feet AGL
Clouds: sky clear below 12,000 feet AGL
Weather: BR  (mist)

Forecast for: LYBE (BELGRADE/SURCIN , CS)
Text: TAF LYBE 061700Z 0618/0718 02004KT 2000 BR BKN004 TX06/0713Z TNM01/0620Z
Forecast period: 1800 UTC 06 December 2019 to 0000 UTC 07 December 2019
Forecast type: FROM: standard forecast or significant change
Winds: from the NNE (20 degrees) at 5 MPH (4 knots; 2.1 m/s)
Visibility: 1.24 miles (2.00 km)
Ceiling: 400 feet AGL
Clouds: broken clouds at 400 feet AGL
Weather: BR  (mist)
Text: PROB40
Forecast period: 1800 UTC 06 December 2019 to 0000 UTC 07 December 2019
Forecast type: TEMPORARY: The following changes expected for less than half the time period
Visibility: 0.25 miles (0.40 km)
Ceiling: indefinite ceiling with vertical visibility of 200 feet AGL
Clouds: obscured sky
Weather: FZFG  (freezing fog)
Text: TEMPO 0618/0624 0400 FZFG VV002
Forecast period: 0000 to 0800 UTC 07 December 2019
Forecast type: BECOMING: Conditions expected to become as follows by 0200 UTC 07 December 2019
Winds: from the NNE (20 degrees) at 5 MPH (4 knots; 2.1 m/s)
Visibility: 2.49 miles (4.01 km)
Ceiling: 800 feet AGL
Clouds: broken clouds at 800 feet AGL
broken clouds at 3000 feet AGL
Weather: BR  (mist)
Text: BECMG 0700/0702 4000 BKN008 BKN030
Forecast period: 0800 to 1800 UTC 07 December 2019
Forecast type: BECOMING: Conditions expected to become as follows by 1000 UTC 07 December 2019
Winds: from the NNE (20 degrees) at 5 MPH (4 knots; 2.1 m/s)
Visibility: 4 miles (7 km)
Ceiling: at least 12,000 feet AGL
Clouds: scattered clouds at 1000 feet AGL
scattered clouds at 3300 feet AGL
Weather: NSW  (no significant weather)